KQBF/QBF METAR and TAF weather

Enter ICAO airport designator
Station Type Date Time Source
KQBF METAR 2020/04/05 18:56 UTC NOAA

KQBF 051856Z AUTO 00000KT 8000 HZ CLR 39/08 A2971 RMK AO2 SLP042 WND DATA ESTMD T03920079


Station Type Date Time Source
KQBF Decoded METAR 2020/04/05 18:56 UTC NOAA

Station name not available
Apr 05, 2020 - 02:56 PM EDT / 2020.04.05 1856 UTC
Wind: Calm:0
Visibility: 4 mile(s):0
Sky conditions: clear
Weather: haze
Temperature: 102.6 F (39.2 C)
Dew Point: 46.2 F (7.9 C)
Relative Humidity: 15%
Pressure (altimeter): 29.71 in. Hg (1006 hPa)
ob: KQBF 051856Z AUTO 00000KT 8000 HZ CLR 39/08 A2971 RMK AO2 SLP042 WND DATA ESTMD T03920079
cycle: 19

Station Type Date Time Source
KQBF TAF 2009/08/24 17:21 UTC NOAA

TAF
AMD KQBF 241721Z 241313 06010G20KT 9999 FEW025 SCT160 BKN230 QNH2915INS
BECMG 2223 100020G25KT 9000 -SHRA SCT009 BKN025 OVC035 610505 QNH2910INS
TEMPO 0209 10025G35KT BKN010
BECMG 1213 09020G25KT 9000 -SHRA SCT015 BKN035 OVC050 610606 T11/15Z T10/00Z
AMD 241744 LIMITED METWATCH 2417 TIL 2507

Example: see airport list